METAR Data
IDs: Format: Raw Decoded Include TAF

Data at: 0337 UTC 23 Oct 2018

KECP 222353Z 04004KT 10SM CLR 20/15 A3015